Time;durP1;ratioP1;P1;durP2;ratioP2;P2;SDS_P1;SDS_P2;PMS_P1;PMS_P2;Temp;Humidity;BMP_temperature;BMP_pressure;BME280_temperature;BME280_humidity;BME280_pressure;Samples;Min_cycle;Max_cycle;Signal;HPM_P1;HPM_P2
2024/03/24 00:01:27;;;;;;;2.27;1.10;;;5.50;99.90;;;6.11;100.00;97322.84;5006488;28;20964;-84
2024/03/24 00:03:54;;;;;;;1.30;0.97;;;5.60;99.90;;;6.11;100.00;97332.44;5006708;28;20466;-84
2024/03/24 00:06:21;;;;;;;9.80;4.33;;;5.40;99.90;;;6.14;100.00;97332.91;4993472;28;20478;-83
2024/03/24 00:08:48;;;;;;;1.37;1.07;;;5.40;99.90;;;6.13;100.00;97326.09;4995221;28;20473;-83
2024/03/24 00:11:15;;;;;;;2.20;1.10;;;5.50;99.90;;;6.13;100.00;97328.69;4995498;28;20509;-84
2024/03/24 00:13:43;;;;;;;1.00;0.90;;;5.60;99.90;;;6.06;100.00;97323.38;5001862;28;20466;-83
2024/03/24 00:16:11;;;;;;;1.20;1.10;;;5.40;99.90;;;6.07;100.00;97324.97;5012738;28;20889;-83
2024/03/24 00:18:38;;;;;;;1.17;1.03;;;5.40;99.90;;;6.05;100.00;97315.75;4998999;28;20461;-83
2024/03/24 00:21:05;;;;;;;1.10;1.00;;;5.30;99.90;;;6.10;100.00;97310.88;4997094;28;20472;-84
2024/03/24 00:23:32;;;;;;;3.07;1.03;;;5.30;99.90;;;6.09;100.00;97314.44;4997991;28;20472;-84
2024/03/24 00:25:59;;;;;;;1.00;0.90;;;5.30;99.90;;;6.03;100.00;97315.97;5001371;28;20995;-84
2024/03/24 00:28:26;;;;;;;1.40;1.10;;;5.20;99.90;;;6.06;100.00;97315.59;4998709;28;20706;-83
2024/03/24 00:30:53;;;;;;;2.20;1.30;;;5.40;99.90;;;6.03;100.00;97307.38;4995630;28;20480;-83
2024/03/24 00:33:22;;;;;;;1.10;1.00;;;5.40;99.90;;;6.05;100.00;97305.38;5002961;28;20492;-83
2024/03/24 00:35:49;;;;;;;1.10;1.00;;;5.40;99.90;;;5.91;100.00;97301.78;4999123;28;20475;-83
2024/03/24 00:38:16;;;;;;;1.57;1.20;;;5.20;99.90;;;5.92;100.00;97298.22;5000672;28;20481;-83
2024/03/24 00:40:43;;;;;;;1.10;1.00;;;5.20;99.90;;;6.00;100.00;97295.53;5000191;28;20465;-83
2024/03/24 00:43:10;;;;;;;1.30;1.07;;;5.30;99.90;;;5.98;100.00;97292.31;5000404;28;21112;-83
2024/03/24 00:45:37;;;;;;;1.17;1.00;;;5.30;99.90;;;5.96;100.00;97288.28;5011219;28;20550;-84
2024/03/24 00:48:05;;;;;;;1.10;1.00;;;5.30;99.90;;;5.96;100.00;97280.50;4999392;28;20476;-83
2024/03/24 00:50:34;;;;;;;1.17;1.07;;;5.20;99.90;;;5.97;100.00;97274.34;5012700;28;20465;-84
2024/03/24 00:53:04;;;;;;;1.30;1.00;;;5.30;99.90;;;5.91;100.00;97281.03;4998095;28;20460;-84
2024/03/24 00:55:30;;;;;;;1.00;0.90;;;5.20;99.90;;;5.95;100.00;97268.50;5001581;28;20472;-83
2024/03/24 00:57:58;;;;;;;1.00;0.90;;;5.40;99.90;;;5.93;100.00;97273.09;4994808;28;20730;-83
2024/03/24 01:00:25;;;;;;;2.10;1.03;;;5.30;99.90;;;5.95;100.00;97265.91;5000441;28;20466;-84
2024/03/24 01:02:52;;;;;;;3.03;1.20;;;5.30;99.90;;;5.96;100.00;97267.53;4999950;28;20459;-83
2024/03/24 01:05:19;;;;;;;1.17;1.07;;;5.30;99.90;;;5.96;100.00;97268.34;5013800;28;20464;-83
2024/03/24 01:07:50;;;;;;;1.20;1.00;;;5.20;99.90;;;5.96;100.00;97260.56;4998305;28;20468;-83
2024/03/24 01:10:17;;;;;;;1.00;0.80;;;5.30;99.90;;;5.98;100.00;97263.78;4995929;28;20998;-83
2024/03/24 01:12:49;;;;;;;8.63;1.13;;;5.20;99.90;;;5.97;100.00;97253.59;4996859;28;20480;-84
2024/03/24 01:15:16;;;;;;;1.77;1.13;;;5.20;99.90;;;6.01;100.00;97255.63;4997447;28;20735;-83
2024/03/24 01:17:43;;;;;;;1.73;1.10;;;5.20;99.90;;;6.01;100.00;97257.41;4999323;28;20489;-83
2024/03/24 01:20:11;;;;;;;2.30;1.10;;;5.20;99.90;;;6.01;100.00;97250.44;4998634;28;20668;-83
2024/03/24 01:22:38;;;;;;;1.00;0.90;;;5.30;99.90;;;5.97;100.00;97251.00;4999586;28;20492;-83
2024/03/24 01:25:08;;;;;;;1.50;0.90;;;5.30;99.90;;;5.90;100.00;97252.69;4998622;28;20464;-83
2024/03/24 01:27:35;;;;;;;2.53;1.10;;;5.10;99.90;;;5.89;100.00;97251.88;4994566;28;20931;-83
2024/03/24 01:30:02;;;;;;;1.87;1.20;;;5.20;99.90;;;5.89;100.00;97243.28;5008867;28;20733;-83
2024/03/24 01:32:29;;;;;;;2.17;1.20;;;5.20;99.90;;;5.84;100.00;97243.78;4998163;28;20476;-83
2024/03/24 01:34:56;;;;;;;4.40;1.20;;;5.10;99.90;;;5.82;100.00;97237.97;4994457;28;20469;-83
2024/03/24 01:37:23;;;;;;;0.97;0.87;;;5.10;99.90;;;5.85;100.00;97227.22;5005099;28;20496;-83
2024/03/24 01:39:50;;;;;;;1.20;1.10;;;5.10;99.90;;;5.82;100.00;97229.38;4994819;28;20527;-83
2024/03/24 01:42:19;;;;;;;1.87;1.30;;;5.10;99.90;;;5.78;100.00;97220.34;4996260;28;20485;-83
2024/03/24 01:44:45;;;;;;;1.37;1.17;;;5.10;99.90;;;5.77;100.00;97221.31;5012859;28;20464;-83
2024/03/24 01:47:13;;;;;;;1.50;1.10;;;5.20;99.90;;;5.68;100.00;97222.38;4999466;28;20469;-83
2024/03/24 01:49:40;;;;;;;1.13;1.03;;;5.20;99.90;;;5.69;100.00;97221.41;5011121;28;20974;-83
2024/03/24 01:52:10;;;;;;;1.17;1.07;;;5.10;99.90;;;5.76;100.00;97215.31;5000391;28;20460;-83
2024/03/24 01:54:37;;;;;;;4.17;1.10;;;5.10;99.90;;;5.80;100.00;97220.94;4998128;28;20469;-83
2024/03/24 01:57:05;;;;;;;1.10;0.87;;;5.10;99.90;;;5.80;100.00;97215.75;4996281;28;20490;-83
2024/03/24 01:59:34;;;;;;;1.23;1.10;;;5.00;99.90;;;5.87;100.00;97221.88;5014975;28;20809;-83
2024/03/24 02:02:01;;;;;;;1.67;0.90;;;5.20;99.90;;;5.85;100.00;97211.66;4998314;28;20472;-83
2024/03/24 02:04:28;;;;;;;1.57;1.20;;;5.20;99.90;;;5.86;100.00;97215.09;4995984;28;20471;-84
2024/03/24 02:06:56;;;;;;;1.20;1.10;;;5.20;99.90;;;5.90;100.00;97216.38;4996863;28;20535;-83
2024/03/24 02:09:22;;;;;;;2.07;1.10;;;5.20;99.90;;;5.87;100.00;97199.34;4996230;28;20491;-83
2024/03/24 02:11:50;;;;;;;1.10;1.00;;;5.20;99.90;;;5.79;100.00;97203.78;4994819;28;20479;-83
2024/03/24 02:14:17;;;;;;;1.63;1.30;;;5.20;99.90;;;5.62;100.00;97200.56;4996006;28;20466;-83
2024/03/24 02:16:45;;;;;;;1.00;0.93;;;5.00;99.90;;;5.59;100.00;97193.91;4992821;28;20533;-83
2024/03/24 02:19:12;;;;;;;1.93;1.20;;;4.90;99.90;;;5.53;100.00;97199.81;5013356;28;20494;-83
2024/03/24 02:21:39;;;;;;;2.03;1.10;;;4.90;99.90;;;5.54;100.00;97196.25;4992990;28;20787;-83
2024/03/24 02:24:08;;;;;;;1.27;1.10;;;5.00;99.90;;;5.58;100.00;97199.31;4999381;28;20473;-83
2024/03/24 02:26:35;;;;;;;1.80;1.00;;;5.00;99.90;;;5.56;100.00;97193.47;4994956;28;20888;-84
2024/03/24 02:29:02;;;;;;;1.20;1.10;;;4.90;99.90;;;5.51;100.00;97186.25;4997191;28;20476;-83
2024/03/24 02:31:29;;;;;;;4.93;1.63;;;4.90;99.90;;;5.56;100.00;97189.09;4995670;28;20473;-83
2024/03/24 02:33:56;;;;;;;1.10;0.90;;;4.90;99.90;;;5.51;100.00;97191.44;4996096;28;20986;-83
2024/03/24 02:36:23;;;;;;;1.53;1.07;;;4.80;99.90;;;5.47;100.00;97184.16;4996542;28;20465;-83
2024/03/24 02:38:50;;;;;;;4.07;1.20;;;4.80;99.90;;;5.51;100.00;97186.25;4996249;28;20480;-83
2024/03/24 02:41:18;;;;;;;1.00;0.90;;;4.90;99.90;;;5.47;100.00;97190.16;4996472;28;20456;-83
2024/03/24 02:43:45;;;;;;;1.30;0.90;;;4.80;99.90;;;5.42;100.00;97189.88;4996561;28;20822;-83
2024/03/24 02:46:12;;;;;;;1.53;1.10;;;4.80;99.90;;;5.42;100.00;97189.88;4996913;28;20463;-83
2024/03/24 02:48:39;;;;;;;2.80;1.33;;;4.70;99.90;;;5.46;100.00;97191.13;4997789;28;20471;-83
2024/03/24 02:51:06;;;;;;;1.43;1.20;;;4.70;99.90;;;5.48;100.00;97183.97;4996089;28;20545;-83
2024/03/24 02:53:32;;;;;;;1.73;1.30;;;4.70;99.90;;;5.42;100.00;97176.91;4997914;28;20467;-83
2024/03/24 02:56:00;;;;;;;2.43;1.90;;;4.70;99.90;;;5.39;100.00;97192.81;4999515;28;20468;-83
2024/03/24 02:58:29;;;;;;;1.20;1.03;;;4.80;99.90;;;5.37;100.00;97188.78;4994484;28;21046;-83
2024/03/24 03:00:55;;;;;;;1.73;0.90;;;4.80;99.90;;;5.39;100.00;97186.81;4999071;28;20477;-83
2024/03/24 03:03:23;;;;;;;1.47;1.00;;;4.80;99.90;;;5.38;100.00;97187.81;5000436;28;20459;-83
2024/03/24 03:05:49;;;;;;;0.87;0.87;;;4.80;99.90;;;5.36;100.00;97182.81;4994239;28;20480;-83
2024/03/24 03:08:17;;;;;;;1.30;0.93;;;4.70;99.90;;;5.34;100.00;97179.59;4990737;28;20553;-84
2024/03/24 03:10:43;;;;;;;1.43;1.00;;;4.80;99.90;;;5.21;100.00;97184.53;4998312;28;20877;-83
2024/03/24 03:13:11;;;;;;;3.20;1.17;;;4.70;99.90;;;5.26;100.00;97171.88;5003018;28;20471;-83
2024/03/24 03:15:38;;;;;;;2.23;1.20;;;4.70;99.90;;;5.21;100.00;97178.56;4993129;28;21041;-83
2024/03/24 03:18:06;;;;;;;1.13;1.03;;;4.50;99.90;;;5.27;100.00;97175.28;4998127;28;20987;-83
2024/03/24 03:20:33;;;;;;;2.93;1.07;;;4.60;99.90;;;5.26;100.00;97176.25;5000889;28;21058;-82
2024/03/24 03:23:00;;;;;;;1.20;1.10;;;4.60;99.90;;;5.27;100.00;97167.50;5002346;28;20459;-83
2024/03/24 03:25:27;;;;;;;1.00;0.90;;;4.60;99.90;;;5.26;100.00;97171.88;5002745;28;20834;-83
2024/03/24 03:27:54;;;;;;;1.27;1.00;;;4.60;99.90;;;5.30;100.00;97167.97;5002797;28;20460;-83
2024/03/24 03:30:21;;;;;;;1.10;1.00;;;4.60;99.90;;;5.29;100.00;97161.16;5001469;28;20864;-83
2024/03/24 03:32:50;;;;;;;0.97;0.87;;;4.50;99.90;;;5.27;100.00;97168.31;4998856;28;21036;-82
2024/03/24 03:35:17;;;;;;;1.77;1.07;;;4.50;99.90;;;5.21;100.00;97163.81;5015934;28;20467;-83
2024/03/24 03:37:44;;;;;;;2.20;1.17;;;4.50;99.90;;;5.15;100.00;97164.50;5002152;28;20510;-83
2024/03/24 03:40:12;;;;;;;1.80;1.03;;;4.50;99.90;;;5.15;100.00;97167.09;5003225;28;20470;-83
2024/03/24 03:42:39;;;;;;;4.97;1.43;;;4.50;99.90;;;5.06;100.00;97165.56;4999703;28;20498;-83
2024/03/24 03:45:07;;;;;;;1.53;1.00;;;4.50;99.90;;;5.04;100.00;97167.50;5007349;28;20451;-82
2024/03/24 03:47:35;;;;;;;1.30;1.20;;;4.40;99.90;;;5.08;100.00;97166.19;5006485;28;20456;-82
2024/03/24 03:50:03;;;;;;;1.30;1.20;;;4.40;99.90;;;5.11;100.00;97171.03;5021045;28;20483;-82
2024/03/24 03:52:31;;;;;;;1.20;1.10;;;4.40;99.90;;;5.06;100.00;97178.53;5007979;28;20471;-83
2024/03/24 03:55:00;;;;;;;1.30;1.03;;;4.40;99.90;;;5.12;100.00;97175.22;5005104;28;20476;-83
2024/03/24 03:57:28;;;;;;;1.10;1.00;;;4.40;99.90;;;5.14;100.00;97175.06;5004586;28;20487;-82
2024/03/24 03:59:57;;;;;;;2.37;1.50;;;4.40;99.90;;;5.08;100.00;97174.78;5002593;28;21009;-83
2024/03/24 04:02:25;;;;;;;1.63;1.10;;;4.50;99.90;;;5.07;100.00;97177.53;5004064;28;20475;-83
2024/03/24 04:04:52;;;;;;;1.80;1.47;;;4.40;99.90;;;5.05;100.00;97179.50;5002188;28;20468;-83
2024/03/24 04:07:21;;;;;;;2.80;1.43;;;4.50;99.90;;;5.00;100.00;97171.44;5002074;28;20451;-83
2024/03/24 04:09:47;;;;;;;1.80;1.30;;;4.50;99.90;;;5.03;100.00;97171.09;5000527;28;20483;-82
2024/03/24 04:12:14;;;;;;;4.73;1.53;;;4.50;99.90;;;5.04;100.00;97170.09;5004995;28;20828;-83
2024/03/24 04:14:41;;;;;;;1.87;1.23;;;4.50;99.90;;;5.01;100.00;97167.88;5004487;28;20459;-83
2024/03/24 04:17:08;;;;;;;4.37;1.43;;;4.50;99.90;;;4.97;100.00;97172.59;5004428;28;20546;-83
2024/03/24 04:19:35;;;;;;;1.20;1.07;;;4.60;99.90;;;5.02;100.00;97169.50;5003880;28;20488;-83
2024/03/24 04:22:02;;;;;;;2.23;1.23;;;4.50;99.90;;;4.96;100.00;97165.78;5005042;28;20468;-83
2024/03/24 04:24:30;;;;;;;6.17;1.43;;;4.50;99.90;;;5.05;100.00;97159.59;5001714;28;20465;-83
2024/03/24 04:26:57;;;;;;;3.13;1.20;;;4.40;99.90;;;5.09;100.00;97160.03;5001303;28;20652;-82
2024/03/24 04:29:24;;;;;;;3.53;1.30;;;4.50;99.90;;;5.08;100.00;97158.41;5017416;28;20461;-83
2024/03/24 04:31:51;;;;;;;1.23;1.03;;;4.50;99.90;;;5.11;100.00;97162.44;5014460;28;20457;-83
2024/03/24 04:34:18;;;;;;;2.73;1.43;;;4.50;99.90;;;5.16;100.00;97170.50;5000812;28;20923;-83
2024/03/24 04:36:45;;;;;;;1.80;1.33;;;4.50;99.90;;;5.13;100.00;97171.66;5017288;28;20490;-82
2024/03/24 04:39:12;;;;;;;1.33;1.10;;;4.60;99.90;;;5.03;100.00;97176.28;5003516;28;20833;-83
2024/03/24 04:41:41;;;;;;;2.13;1.17;;;4.60;99.90;;;5.07;100.00;97167.16;5016763;28;20738;-83
2024/03/24 04:44:08;;;;;;;1.47;1.20;;;4.50;99.90;;;5.08;100.00;97164.41;5003945;28;20474;-82
2024/03/24 04:46:35;;;;;;;2.27;1.40;;;4.50;99.90;;;5.03;100.00;97158.16;4999392;28;20819;-82
2024/03/24 04:49:04;;;;;;;1.40;1.20;;;4.40;99.90;;;5.09;100.00;97149.69;5003548;28;20471;-82
2024/03/24 04:51:31;;;;;;;3.27;1.33;;;4.50;99.90;;;4.98;100.00;97152.69;5019660;28;20827;-82
2024/03/24 04:53:57;;;;;;;1.30;1.20;;;4.50;99.90;;;5.03;100.00;97155.56;5005124;28;20459;-83
2024/03/24 04:56:25;;;;;;;1.50;1.03;;;4.50;99.90;;;5.01;100.00;97150.53;5002910;28;20959;-83
2024/03/24 04:58:53;;;;;;;45.80;22.43;;;4.50;99.90;;;5.02;100.00;97141.81;5013885;28;20489;-86
2024/03/24 05:01:20;;;;;;;18.47;8.20;;;4.50;99.90;;;5.02;100.00;97146.97;5001992;28;20471;-82
2024/03/24 05:03:47;;;;;;;4.90;1.60;;;4.40;99.90;;;5.03;100.00;97152.97;5004490;28;20468;-83
2024/03/24 05:06:14;;;;;;;1.33;1.23;;;4.40;99.90;;;5.03;100.00;97145.97;4998593;28;20469;-83
2024/03/24 05:08:41;;;;;;;1.80;1.20;;;4.50;99.90;;;5.05;100.00;97138.03;4997774;28;20475;-83
2024/03/24 05:11:09;;;;;;;3.67;1.80;;;4.50;99.90;;;5.10;100.00;97140.13;5002401;28;20474;-79
2024/03/24 05:13:36;;;;;;;2.10;1.70;;;4.50;99.90;;;5.06;100.00;97144.84;5019278;28;20472;-78
2024/03/24 05:16:07;;;;;;;2.80;1.33;;;4.50;99.90;;;5.02;100.00;97146.16;5003671;28;20461;-79
2024/03/24 05:18:34;;;;;;;1.77;1.50;;;4.50;99.90;;;4.98;100.00;97156.06;5005056;28;20506;-78
2024/03/24 05:21:01;;;;;;;3.03;1.50;;;4.40;99.90;;;4.98;100.00;97147.50;4999668;28;20462;-79
2024/03/24 05:23:28;;;;;;;8.80;1.47;;;4.40;99.90;;;4.99;100.00;97149.13;4996613;28;20467;-79
2024/03/24 05:25:56;;;;;;;2.10;1.33;;;4.40;99.90;;;4.98;100.00;97147.50;4996805;28;20467;-79
2024/03/24 05:28:23;;;;;;;1.50;1.40;;;4.60;99.90;;;5.03;100.00;97145.19;4996147;28;20479;-79
2024/03/24 05:30:52;;;;;;;3.83;1.93;;;4.50;99.90;;;5.03;100.00;97160.75;4994876;28;20472;-79
2024/03/24 05:33:20;;;;;;;4.53;1.70;;;4.50;99.90;;;5.10;100.00;97160.84;5001429;28;20469;-79
2024/03/24 05:35:47;;;;;;;4.30;1.67;;;4.50;99.90;;;5.13;100.00;97150.94;5000372;28;20506;-80
2024/03/24 05:38:14;;;;;;;3.13;1.50;;;4.40;99.90;;;5.11;100.00;97160.66;5002241;28;20523;-80
2024/03/24 05:40:41;;;;;;;3.73;2.00;;;4.50;99.90;;;5.09;100.00;97157.44;5000009;28;20476;-80
2024/03/24 05:43:08;;;;;;;2.47;1.60;;;4.50;99.90;;;5.18;100.00;97153.81;5003362;28;20475;-80
2024/03/24 05:45:36;;;;;;;3.47;1.50;;;4.60;99.90;;;5.22;100.00;97144.69;5014935;28;20467;-80
2024/03/24 05:48:03;;;;;;;3.73;1.50;;;4.50;99.90;;;5.22;100.00;97152.47;4998002;28;20456;-80
2024/03/24 05:50:32;;;;;;;2.47;1.93;;;4.50;99.90;;;5.24;100.00;97147.91;5003207;28;20478;-80
2024/03/24 05:52:59;;;;;;;5.90;2.00;;;4.60;99.90;;;5.28;100.00;97136.22;4997120;28;20460;-80
2024/03/24 05:55:26;;;;;;;3.57;1.73;;;4.70;99.90;;;5.34;100.00;97142.50;5003879;28;20448;-80
2024/03/24 05:57:53;;;;;;;4.37;2.17;;;4.70;99.90;;;5.32;100.00;97147.84;5000242;28;20500;-80
2024/03/24 06:00:20;;;;;;;2.80;2.23;;;4.80;99.90;;;5.34;100.00;97148.50;5000890;28;20468;-80
2024/03/24 06:02:47;;;;;;;4.57;2.83;;;4.80;99.90;;;5.31;100.00;97133.25;5000205;28;20478;-83
2024/03/24 06:05:14;;;;;;;6.00;3.70;;;4.70;99.90;;;5.38;100.00;97143.75;5003028;28;20482;-78
2024/03/24 06:07:42;;;;;;;8.93;1.87;;;4.80;99.90;;;5.41;100.00;97131.25;4991983;28;20476;-78
2024/03/24 06:10:10;;;;;;;6.30;2.13;;;4.80;99.90;;;5.39;100.00;97130.59;4996247;28;20866;-77
2024/03/24 06:12:37;;;;;;;3.63;1.93;;;4.70;99.90;;;5.45;100.00;97137.66;5005549;28;20464;-76
2024/03/24 06:15:06;;;;;;;4.80;2.00;;;4.80;99.90;;;5.47;100.00;97143.50;4998090;28;20487;-80
2024/03/24 06:17:32;;;;;;;16.10;7.87;;;4.80;99.90;;;5.49;100.00;97153.69;5001940;28;20495;-79
2024/03/24 06:20:00;;;;;;;3.63;2.27;;;4.90;99.90;;;5.40;100.00;97142.59;4995662;28;20970;-78
2024/03/24 06:22:27;;;;;;;7.30;2.50;;;4.80;99.90;;;5.45;100.00;97147.22;4996987;28;20487;-77
2024/03/24 06:24:56;;;;;;;3.20;2.37;;;4.90;99.90;;;5.47;100.00;97140.09;5000184;28;20515;-77
2024/03/24 06:27:22;;;;;;;5.33;2.33;;;4.90;99.90;;;5.50;100.00;97143.13;5001021;28;21275;-77
2024/03/24 06:29:49;;;;;;;2.20;2.00;;;4.90;99.90;;;5.58;100.00;97144.84;5003460;28;20475;-77
2024/03/24 06:32:16;;;;;;;3.40;2.47;;;5.00;99.90;;;5.60;100.00;97135.09;4994349;28;20464;-76
2024/03/24 06:34:43;;;;;;;3.30;2.20;;;5.10;99.90;;;5.61;100.00;97136.72;4996075;28;20872;-77
2024/03/24 06:37:10;;;;;;;5.30;2.30;;;5.00;99.90;;;5.59;100.00;97142.06;4995972;28;20475;-76
2024/03/24 06:39:37;;;;;;;4.40;2.67;;;5.00;99.90;;;5.63;100.00;97136.50;5000567;28;20469;-76
2024/03/24 06:42:08;;;;;;;4.27;2.27;;;5.00;99.90;;;5.59;100.00;97142.06;4999650;28;21038;-77
2024/03/24 06:44:37;;;;;;;5.77;2.20;;;5.00;99.90;;;5.63;100.00;97136.50;4998060;28;20525;-77
2024/03/24 06:47:04;;;;;;;5.37;2.23;;;5.10;99.90;;;5.58;100.00;97139.66;5012816;28;20556;-77
2024/03/24 06:49:31;;;;;;;4.27;2.33;;;5.10;99.90;;;5.53;100.00;97136.78;5013223;28;20995;-77
2024/03/24 06:51:58;;;;;;;4.13;2.17;;;5.00;99.90;;;5.52;100.00;97138.56;4996777;28;20464;-78
2024/03/24 06:54:26;;;;;;;5.70;2.70;;;5.00;99.90;;;5.53;100.00;97127.22;5004214;28;20842;-77
2024/03/24 06:56:52;;;;;;;2.80;2.20;;;5.00;99.90;;;5.59;100.00;97129.09;5005440;28;20465;-77
2024/03/24 06:59:21;;;;;;;9.80;2.77;;;5.00;99.90;;;5.63;100.00;97129.53;5005118;28;20495;-77
2024/03/24 07:01:47;;;;;;;6.30;2.40;;;5.10;99.90;;;5.66;100.00;97125.81;5000289;28;20996;-77
2024/03/24 07:04:15;;;;;;;4.23;2.27;;;5.10;99.90;;;5.71;100.00;97128.66;5006159;28;20483;-78
2024/03/24 07:06:42;;;;;;;7.37;2.70;;;5.10;99.90;;;5.71;100.00;97123.47;5000557;28;20457;-79
2024/03/24 07:09:09;;;;;;;8.70;2.13;;;5.10;99.90;;;5.73;100.00;97122.31;5002188;28;20828;-78
2024/03/24 07:11:36;;;;;;;4.77;2.27;;;5.10;99.90;;;5.75;100.00;97124.72;5000408;28;20468;-78
2024/03/24 07:14:03;;;;;;;2.10;1.90;;;5.20;99.90;;;5.64;100.00;97112.22;5005570;28;20543;-78
2024/03/24 07:16:31;;;;;;;5.67;2.47;;;5.10;99.90;;;5.65;100.00;97122.41;5017204;28;20497;-78
2024/03/24 07:18:58;;;;;;;3.00;2.20;;;5.20;99.90;;;5.74;100.00;97121.31;5001494;28;20503;-77
2024/03/24 07:21:25;;;;;;;4.90;2.33;;;5.10;99.90;;;5.76;100.00;97121.16;5000019;28;20812;-78
2024/03/24 07:23:52;;;;;;;5.70;2.30;;;5.10;99.90;;;5.73;100.00;97124.09;4999684;28;20476;-78
2024/03/24 07:26:19;;;;;;;6.47;2.70;;;5.20;99.90;;;5.76;100.00;97126.34;4997238;28;20491;-78
2024/03/24 07:28:46;;;;;;;5.87;3.30;;;5.10;99.90;;;5.78;100.00;97126.97;5000359;28;20469;-82
2024/03/24 07:31:18;;;;;;;5.33;2.50;;;5.20;99.90;;;5.85;100.00;97120.06;5018761;28;20492;-76
2024/03/24 07:33:47;;;;;;;4.60;2.93;;;5.30;99.90;;;5.93;100.00;97127.78;5006655;28;20465;-78
2024/03/24 07:36:13;;;;;;;8.80;2.70;;;5.20;99.90;;;5.86;100.00;97125.13;5004373;28;20472;-77
2024/03/24 07:38:41;;;;;;;3.70;2.40;;;5.20;99.90;;;5.94;100.00;97134.56;5003885;28;20496;-77
2024/03/24 07:41:07;;;;;;;12.70;2.83;;;5.20;99.90;;;6.02;100.00;97116.31;5003910;28;20468;-77
2024/03/24 07:43:35;;;;;;;2.90;2.10;;;5.40;99.90;;;5.99;100.00;97121.88;5006059;28;20465;-77
2024/03/24 07:46:01;;;;;;;8.13;2.30;;;5.40;99.90;;;5.96;100.00;97125.66;5005448;28;20476;-76
2024/03/24 07:48:29;;;;;;;3.77;2.40;;;5.40;99.90;;;5.96;100.00;97137.81;5004273;28;20467;-77
2024/03/24 07:50:56;;;;;;;5.10;2.33;;;5.30;99.90;;;5.90;100.00;97138.53;5017871;28;21122;-76
2024/03/24 07:53:26;;;;;;;3.70;2.50;;;5.40;99.90;;;5.92;100.00;97133.97;5005340;28;20530;-77
2024/03/24 07:55:53;;;;;;;3.73;2.30;;;5.40;99.90;;;5.93;100.00;97140.78;5004028;28;20484;-77
2024/03/24 07:58:20;;;;;;;4.50;2.50;;;5.40;99.90;;;5.99;100.00;97140.03;5001899;28;20500;-77
2024/03/24 08:00:47;;;;;;;3.77;2.40;;;5.50;99.90;;;6.03;100.00;97141.28;5009158;28;20951;-77
2024/03/24 08:03:14;;;;;;;9.40;2.60;;;5.50;99.90;;;6.02;100.00;97147.47;5000199;28;20465;-77
2024/03/24 08:05:43;;;;;;;8.50;2.50;;;5.50;99.90;;;6.01;100.00;97143.25;5011954;28;20476;-77
2024/03/24 08:08:12;;;;;;;3.33;2.10;;;5.50;99.90;;;6.05;100.00;97144.50;4997962;28;20470;-77
2024/03/24 08:10:39;;;;;;;8.03;2.60;;;5.60;99.90;;;6.04;100.00;97150.66;5000154;28;20464;-77
2024/03/24 08:13:06;;;;;;;3.57;2.27;;;5.60;99.90;;;6.06;100.00;97149.53;4999638;28;20476;-76
2024/03/24 08:15:33;;;;;;;5.20;2.50;;;5.50;99.90;;;6.03;100.00;97146.47;4980857;28;20476;-76
2024/03/24 08:18:00;;;;;;;5.00;2.50;;;5.60;99.90;;;6.09;100.00;97137.97;5005256;28;20911;-77
2024/03/24 08:20:27;;;;;;;5.40;2.43;;;5.50;99.90;;;6.06;100.00;97148.72;4998396;28;20468;-77
2024/03/24 08:22:55;;;;;;;12.80;5.10;;;5.50;99.90;;;6.08;100.00;97139.75;5015735;28;20469;-82
2024/03/24 08:25:23;;;;;;;6.87;3.07;;;5.60;99.90;;;6.13;100.00;97133.22;5002965;28;20479;-79
2024/03/24 08:27:51;;;;;;;3.90;1.97;;;5.60;99.90;;;6.16;100.00;97133.66;4999783;28;20479;-77
2024/03/24 08:30:18;;;;;;;4.37;2.33;;;5.60;99.90;;;6.18;100.00;97138.69;5000007;28;20469;-78
2024/03/24 08:32:46;;;;;;;3.87;2.53;;;5.60;99.90;;;6.23;100.00;97139.75;5015069;28;20854;-78
2024/03/24 08:35:12;;;;;;;5.87;1.93;;;5.60;99.90;;;6.32;100.00;97143.81;5005402;28;20531;-78
2024/03/24 08:37:40;;;;;;;6.73;2.10;;;5.70;99.90;;;6.38;100.00;97137.94;4999272;28;20483;-78
2024/03/24 08:40:09;;;;;;;5.83;2.67;;;5.80;99.90;;;6.44;100.00;97144.97;5000792;28;20471;-78
2024/03/24 08:42:37;;;;;;;10.13;2.37;;;5.80;99.90;;;6.50;100.00;97140.81;5005262;28;20461;-77
2024/03/24 08:45:05;;;;;;;4.13;1.90;;;5.80;99.90;;;6.53;100.00;97140.47;5003966;28;20984;-78
2024/03/24 08:47:34;;;;;;;4.77;2.20;;;5.90;99.90;;;6.53;100.00;97146.47;5003858;28;20460;-77
2024/03/24 08:50:00;;;;;;;8.20;2.20;;;5.90;99.90;;;6.63;100.00;97161.75;4997958;28;20827;-78
2024/03/24 08:52:28;;;;;;;5.43;1.90;;;6.00;99.90;;;6.63;100.00;97145.38;5001595;28;20534;-79
2024/03/24 08:54:54;;;;;;;4.07;2.00;;;6.10;99.90;;;6.64;100.00;97157.34;5017757;28;20977;-78
2024/03/24 08:57:22;;;;;;;3.67;2.30;;;6.00;99.90;;;6.68;100.00;97163.78;4998966;28;20823;-77
2024/03/24 08:59:50;;;;;;;2.93;1.57;;;6.00;99.90;;;6.74;100.00;97147.47;5002890;28;20494;-77
2024/03/24 09:02:17;;;;;;;3.13;2.00;;;6.10;99.90;;;6.70;100.00;97154.03;5000543;28;20458;-78
2024/03/24 09:04:44;;;;;;;7.90;1.77;;;6.10;99.90;;;6.68;100.00;97158.59;5003227;28;20489;-77
2024/03/24 09:07:11;;;;;;;5.57;2.10;;;6.10;99.90;;;6.72;100.00;97168.44;5003943;28;20484;-77
2024/03/24 09:09:38;;;;;;;3.80;1.77;;;6.10;99.90;;;6.72;100.00;97159.84;5001841;28;20842;-77
2024/03/24 09:12:06;;;;;;;3.00;1.70;;;6.20;99.90;;;6.75;100.00;97154.28;4999906;28;20973;-77
2024/03/24 09:14:33;;;;;;;1.97;1.57;;;6.20;99.90;;;6.78;100.00;97153.91;5002481;28;20978;-78
2024/03/24 09:17:02;;;;;;;2.53;1.50;;;6.10;99.90;;;6.81;100.00;97159.53;5002494;28;20485;-78
2024/03/24 09:19:28;;;;;;;4.07;1.50;;;6.10;99.90;;;6.76;100.00;97161.09;4997650;28;20497;-79
2024/03/24 09:21:56;;;;;;;2.20;1.43;;;6.10;99.90;;;6.73;100.00;97167.47;5000301;28;20964;-79
2024/03/24 09:24:22;;;;;;;4.40;1.77;;;6.10;99.90;;;6.77;100.00;97160.09;4997718;28;20850;-78
2024/03/24 09:26:51;;;;;;;2.37;1.40;;;6.10;99.90;;;6.79;100.00;97155.53;4997474;28;20474;-78
2024/03/24 09:29:17;;;;;;;4.43;3.30;;;6.10;99.90;;;6.76;100.00;97159.31;4997591;28;20474;-87
2024/03/24 09:31:45;;;;;;;1.70;1.40;;;6.10;99.90;;;6.80;100.00;97157.13;5000708;28;21144;-78
2024/03/24 09:34:13;;;;;;;8.10;2.10;;;6.20;99.90;;;6.79;100.00;97151.13;5000633;28;20953;-77
2024/03/24 09:36:40;;;;;;;5.27;1.90;;;6.30;99.90;;;6.80;100.00;97155.34;5003107;28;20787;-79
2024/03/24 09:39:07;;;;;;;2.30;1.50;;;6.30;99.90;;;6.82;100.00;97149.94;5002463;28;20557;-78
2024/03/24 09:41:43;;;;;;;3.20;1.67;;;6.20;99.90;;;6.84;100.00;97158.34;5001689;28;20471;-78
2024/03/24 09:44:11;;;;;;;2.10;1.70;;;6.20;99.90;;;6.90;100.00;97153.25;5000523;28;20465;-78
2024/03/24 09:46:42;;;;;;;3.27;1.97;;;6.30;99.90;;;6.91;100.00;97154.81;5000407;28;20474;-78
2024/03/24 09:49:14;;;;;;;2.23;1.50;;;6.30;99.90;;;6.91;100.00;97149.63;4999165;28;20465;-78
2024/03/24 09:51:44;;;;;;;5.17;1.60;;;6.40;99.90;;;6.97;100.00;97146.31;4995649;28;20475;-78
2024/03/24 09:54:11;;;;;;;5.00;1.63;;;6.30;99.90;;;7.05;100.00;97158.34;4995977;28;20470;-77
2024/03/24 09:56:40;;;;;;;7.27;2.00;;;6.40;99.90;;;7.09;100.00;97157.00;4998207;28;20463;-78
2024/03/24 09:59:07;;;;;;;2.20;1.80;;;6.40;99.90;;;7.19;100.00;97154.06;4994899;28;20486;-78
2024/03/24 10:01:38;;;;;;;3.10;1.30;;;6.60;99.90;;;7.20;100.00;97151.28;4998080;28;20457;-79
2024/03/24 10:04:05;;;;;;;2.37;1.63;;;6.70;99.90;;;7.27;100.00;97159.13;4995556;28;20545;-79
2024/03/24 10:06:35;;;;;;;1.83;1.40;;;6.70;99.90;;;7.31;100.00;97160.38;4998021;28;20466;-78
2024/03/24 10:09:02;;;;;;;5.57;1.57;;;6.60;99.90;;;7.34;100.00;97154.81;4992665;28;20485;-78
2024/03/24 10:11:32;;;;;;;4.73;2.33;;;6.70;99.90;;;7.34;100.00;97168.59;4997879;28;20488;-78
2024/03/24 10:14:00;;;;;;;1.80;1.20;;;6.60;99.90;;;7.27;100.00;97153.94;4999343;28;20540;-77
2024/03/24 10:16:29;;;;;;;1.63;1.30;;;6.60;99.90;;;7.25;100.00;97161.94;4996634;28;20460;-77
2024/03/24 10:18:56;;;;;;;4.40;1.93;;;6.60;99.90;;;7.30;100.00;97162.16;4998331;28;20537;-77
2024/03/24 10:21:24;;;;;;;4.00;1.40;;;6.70;99.90;;;7.30;100.00;97164.78;4998296;28;20486;-78
2024/03/24 10:23:52;;;;;;;1.53;1.27;;;6.60;99.90;;;7.32;100.00;97151.59;4995881;28;20482;-79
2024/03/24 10:26:21;;;;;;;1.23;1.00;;;6.80;99.90;;;7.31;100.00;97161.19;4995602;28;20471;-78